Iron Mountain, MI

9:41 PM CDT on August 01, 2014 (GMT -0500)
Menominee-Marinette Twin County (KMNM) Elev 627 ft | 45.13 °N, 87.64 °W | Change Station

Current weather conditions updated 6 minutes ago

Clear
Clear
68 °F
Feels Like 68 °F
N
6
Wind Variable Wind from SSE

Tomorrow is forecast to be nearly the same temperature as today. Partly cloudy with a stray thunderstorm tomorrow night.

Today
High -- | Low -- °F
--% Chance of Precip.
Yesterday
High -- | Low -- °F
Precip. -- in
5:35 AM 8:21 PM
Waxing Crescent, 31% visible
Pressure 30.07 in
Visibility 10.0 miles
Clouds Clear
Dew Point 61 °F
Humidity 78%
Rainfall 0.00 in
Snow Depth Not available.
UV 0 out of 12
Pollen 7.30 out of 12
Air Quality Not available.
Flu Activity Not available.
METAR KMNM 020235Z AUTO 15005KT 10SM CLR 20/16 A3007 RMK AO1 LTG DSNT E TSE01B19E34

More Conditions Fewer Conditions

Pressure 30.07 in
Visibility 10.0 miles
Clouds Clear
Dew Point 61 °F
Humidity 78%
Rainfall 0.00 in
Snow Depth Not available.
UV 0 out of 12
Pollen 7.30 out of 12
Air Quality Not available.
Flu Activity Not available.
METAR KMNM 020235Z AUTO 15005KT 10SM CLR 20/16 A3007 RMK AO1 LTG DSNT E TSE01B19E34

More Conditions Fewer Conditions

10-Day Weather Forecast

Almanac

Astronomy

Aug. 01, 2014 Rise Set
Actual Time 5:35 AM CDT 8:21 PM CDT
Civil Twilight 5:00 AM CDT 8:55 PM CDT
Nautical Twilight 4:17 AM CDT 9:38 PM CDT
Astronomical Twilight 3:25 AM CDT 10:29 PM CDT
Moon 11:18 AM CDT (8/1) 10:44 PM CDT (8/1)
Length of Visible Light 15h 54m
Length of Day
14h 45m
Tomorrow will be 2m 30s shorter.
Waxing Crescent, 31% of the Moon is Illuminated
Today
Waxing Crescent
Aug 3
First Quarter
Aug 10
Full
Aug 17
Last Quarter
Aug 25
New

Today's Extremes

State Highs State Lows

Community

WunderPhotos

Upload Photos

1,739,813 photos uploaded!

Nearby

Snow Depth

Station Depth Elevation
No new snow has been reported.

Earthquake Activity

City Distance Mag. Time & Date
No recent earthquake activity has been reported nearby.
Minimum magnitude displayed is 2.5.

Coastal Water Temperatures

Place Temperature
No Stations Reporting

Nearby Weather Stations

Station Location Temp. Dew Point Humidity Wind Precip. Elev Updated Type
Spread Eagle Skies, Florence, WI 64.4 °F 56 °F 75% ENE  at  0.0 mph 0.00 in / hr 1224 ft 9:41 PM CDT Rapid Fire
Norway, MI 63.4 °F 56 °F 76% East  at  2.0 mph 0.00 in / hr 1010 ft 9:32 PM CDT Normal
Downtown, Norway, MI 65.9 °F 56 °F 71% NNE  at  4.0 mph 0.00 in / hr 942 ft 9:41 PM CDT Rapid Fire
Wiggins Lake, Pembine, WI 64.8 °F 60 °F 86% WNW  at  0.0 mph 0.00 in / hr 997 ft 9:41 PM CDT Rapid Fire

Show More Stations Show Fewer Stations